Terminal Aerodrome Forecast
Issued by NWS Charleston, WV

Current Version | Previous Version | Text Only | Print | Product List | Glossary Off
Versions: 1 2 3 4 5 6 7 8 9 10 11 12 13 14 15 16 17 18 19 20 21 22 23 24 25 26 27 28 29 30

000
FTUS41 KRLX 130500
TAFEKN
TAF
KEKN 130540Z 1306/1406 00000KT P6SM SCT050 OVC080
     FM130900 VRB03KT 6SM -SHRA BR OVC040
     FM131100 VRB03KT 4SM -SHRA BR OVC015
     FM131200 00000KT 4SM SHRA BR OVC008
     FM131700 28005KT 6SM BR OVC008
     FM140100 00000KT P6SM BKN030
     FM140300 00000KT P6SM BKN250=

USA.gov is the U.S. government's official web portal to all federal, state and local government web resources and services.